Time;durP1;ratioP1;P1;durP2;ratioP2;P2;SDS_P1;SDS_P2;PMS_P1;PMS_P2;Temp;Humidity;BMP_temperature;BMP_pressure;BME280_temperature;BME280_humidity;BME280_pressure;Samples;Min_cycle;Max_cycle;Signal;HPM_P1;HPM_P2
2023/06/14 00:00:43;;;;;;;10.10;8.75;;;17.10;99.90;;;;;;5049874;28;20124;-73
2023/06/14 00:03:09;;;;;;;12.40;8.95;;;17.00;99.90;;;;;;5049320;28;20029;-70
2023/06/14 00:05:42;;;;;;;12.10;8.63;;;16.90;99.90;;;;;;5049961;28;20096;-72
2023/06/14 00:08:12;;;;;;;9.90;9.02;;;16.80;99.90;;;;;;5049082;28;20047;-71
2023/06/14 00:10:38;;;;;;;10.13;9.00;;;16.80;99.90;;;;;;5049746;28;20040;-71
2023/06/14 00:13:04;;;;;;;9.18;8.27;;;16.70;99.90;;;;;;5049470;28;20074;-71
2023/06/14 00:15:33;;;;;;;11.52;10.32;;;16.70;99.90;;;;;;5049743;28;20123;-71
2023/06/14 00:18:03;;;;;;;11.38;9.88;;;16.60;99.90;;;;;;5049604;28;20485;-74
2023/06/14 00:20:30;;;;;;;11.25;10.07;;;16.50;99.90;;;;;;5049748;28;20032;-71
2023/06/14 00:22:56;;;;;;;11.05;9.95;;;16.50;99.90;;;;;;5049510;28;20025;-71
2023/06/14 00:25:26;;;;;;;11.60;9.80;;;16.50;99.90;;;;;;5049413;28;20151;-71
2023/06/14 00:27:53;;;;;;;12.25;10.00;;;16.50;99.90;;;;;;5050298;28;20061;-71
2023/06/14 00:30:19;;;;;;;12.10;9.63;;;16.50;99.90;;;;;;5049376;28;20035;-71
2023/06/14 00:32:46;;;;;;;10.68;9.68;;;16.40;99.90;;;;;;5053846;28;20025;-71
2023/06/14 00:35:12;;;;;;;11.18;9.98;;;16.40;99.90;;;;;;5052937;28;20021;-71
2023/06/14 00:37:38;;;;;;;10.95;9.88;;;16.50;99.90;;;;;;5053733;28;20128;-71
2023/06/14 00:40:05;;;;;;;11.90;10.48;;;16.40;99.90;;;;;;5053234;28;20175;-71
2023/06/14 00:42:31;;;;;;;12.80;10.75;;;16.50;99.90;;;;;;5053196;28;20053;-71
2023/06/14 00:44:57;;;;;;;12.77;11.52;;;16.40;99.90;;;;;;5053593;28;20035;-72
2023/06/14 00:47:22;;;;;;;12.13;11.02;;;16.40;99.90;;;;;;5052938;28;20021;-71
2023/06/14 00:49:50;;;;;;;11.23;9.88;;;16.30;99.90;;;;;;5053329;28;20108;-71
2023/06/14 00:52:17;;;;;;;11.77;10.57;;;16.30;99.90;;;;;;5051109;28;20032;-71
2023/06/14 00:54:43;;;;;;;11.77;10.13;;;16.30;99.90;;;;;;5053383;28;20047;-71
2023/06/14 00:57:10;;;;;;;12.05;10.45;;;16.30;99.90;;;;;;5052652;28;20036;-71
2023/06/14 00:59:48;;;;;;;12.35;10.98;;;16.20;99.90;;;;;;5053285;28;20029;-71
2023/06/14 01:02:14;;;;;;;11.52;10.43;;;16.30;99.90;;;;;;5051430;28;20021;-71
2023/06/14 01:04:45;;;;;;;13.00;11.23;;;16.30;99.90;;;;;;5053210;28;20063;-70
2023/06/14 01:07:24;;;;;;;12.00;10.80;;;16.30;99.90;;;;;;5052688;28;20409;-71
2023/06/14 01:10:10;;;;;;;12.07;10.27;;;16.30;99.90;;;;;;5053003;28;20111;-70
2023/06/14 01:12:39;;;;;;;11.82;10.60;;;16.20;99.90;;;;;;5052817;28;20116;-71
2023/06/14 01:15:07;;;;;;;12.35;11.15;;;16.20;99.90;;;;;;5052461;28;20029;-71
2023/06/14 01:17:34;;;;;;;12.35;11.07;;;16.20;99.90;;;;;;5053064;28;20082;-71
2023/06/14 01:20:02;;;;;;;14.60;11.52;;;16.10;99.90;;;;;;5052760;28;20385;-71
2023/06/14 01:22:29;;;;;;;12.10;10.07;;;16.10;99.90;;;;;;5052809;28;20066;-71
2023/06/14 01:24:55;;;;;;;13.13;11.05;;;16.00;99.90;;;;;;5053187;28;20043;-71
2023/06/14 01:27:28;;;;;;;12.43;10.35;;;16.10;99.90;;;;;;5051960;28;20163;-71
2023/06/14 01:29:59;;;;;;;16.55;11.80;;;16.10;99.90;;;;;;5052845;28;20447;-70
2023/06/14 01:32:26;;;;;;;12.10;10.95;;;16.10;99.90;;;;;;5052060;28;20098;-71
2023/06/14 01:34:52;;;;;;;13.48;12.05;;;16.00;99.90;;;;;;5052966;28;20135;-71
2023/06/14 01:37:20;;;;;;;12.13;10.75;;;16.00;99.90;;;;;;5052071;28;20434;-71
2023/06/14 01:39:49;;;;;;;13.63;12.20;;;16.00;99.90;;;;;;5052502;28;20139;-71
2023/06/14 01:42:15;;;;;;;12.93;11.63;;;16.10;99.90;;;;;;5051724;28;20032;-71
2023/06/14 01:44:44;;;;;;;12.57;11.38;;;16.10;99.90;;;;;;5050733;28;20167;-71
2023/06/14 01:47:10;;;;;;;13.35;11.55;;;16.10;99.90;;;;;;5051563;28;20052;-71
2023/06/14 01:49:36;;;;;;;12.60;11.30;;;16.10;99.90;;;;;;5052118;28;20032;-71
2023/06/14 01:52:02;;;;;;;12.15;10.95;;;16.10;99.90;;;;;;5051604;28;20029;-71
2023/06/14 01:54:29;;;;;;;13.50;12.20;;;16.10;99.90;;;;;;5051422;28;20489;-71
2023/06/14 01:56:55;;;;;;;12.43;11.18;;;16.20;99.90;;;;;;5052097;28;20025;-71
2023/06/14 01:59:20;;;;;;;15.90;12.80;;;16.20;99.90;;;;;;5051966;28;20036;-70
2023/06/14 02:01:46;;;;;;;14.38;12.85;;;16.20;99.90;;;;;;5051916;28;20084;-71
2023/06/14 02:04:12;;;;;;;13.98;12.43;;;16.20;99.90;;;;;;5051242;28;20025;-71
2023/06/14 02:06:38;;;;;;;13.82;12.38;;;16.20;99.90;;;;;;5051855;28;20393;-71
2023/06/14 02:09:04;;;;;;;13.23;11.93;;;16.20;99.90;;;;;;5050115;28;20455;-71
2023/06/14 02:11:30;;;;;;;14.35;12.30;;;16.20;99.90;;;;;;5051405;28;20029;-70
2023/06/14 02:13:56;;;;;;;16.42;13.50;;;16.30;99.90;;;;;;5051839;28;20025;-71
2023/06/14 02:16:22;;;;;;;15.63;13.50;;;16.40;99.90;;;;;;5051410;28;20032;-71
2023/06/14 02:18:48;;;;;;;13.75;12.35;;;16.40;99.90;;;;;;5051716;28;20095;-71
2023/06/14 02:21:14;;;;;;;14.27;12.88;;;16.50;99.90;;;;;;5051354;28;20029;-71
2023/06/14 02:23:40;;;;;;;14.63;13.10;;;16.50;99.90;;;;;;5051607;28;20029;-71
2023/06/14 02:26:06;;;;;;;16.30;14.57;;;16.60;99.90;;;;;;5051578;28;20149;-74
2023/06/14 02:28:32;;;;;;;16.02;13.90;;;16.60;99.90;;;;;;5052094;28;20021;-71
2023/06/14 02:30:57;;;;;;;16.85;14.40;;;16.60;99.90;;;;;;5051753;28;20040;-71
2023/06/14 02:33:24;;;;;;;15.93;14.02;;;16.60;99.90;;;;;;5051074;28;20485;-71
2023/06/14 02:35:50;;;;;;;15.10;13.55;;;16.70;99.90;;;;;;5051851;28;20024;-71
2023/06/14 02:38:16;;;;;;;15.65;13.18;;;16.70;99.90;;;;;;5051187;28;20029;-71
2023/06/14 02:40:42;;;;;;;17.40;13.50;;;16.60;99.90;;;;;;5051702;28;20047;-70
2023/06/14 02:43:08;;;;;;;16.85;13.88;;;16.60;99.90;;;;;;5051151;28;20028;-75
2023/06/14 02:45:34;;;;;;;17.58;14.30;;;16.60;99.90;;;;;;5051697;28;20127;-71
2023/06/14 02:48:00;;;;;;;14.23;12.68;;;16.60;99.90;;;;;;5051486;28;20112;-71
2023/06/14 02:50:28;;;;;;;14.95;13.50;;;16.60;99.90;;;;;;5049632;28;20212;-71
2023/06/14 02:52:55;;;;;;;16.13;13.70;;;16.60;99.90;;;;;;5050751;28;20021;-71
2023/06/14 02:55:21;;;;;;;16.98;14.07;;;16.60;99.90;;;;;;5050399;28;20059;-71
2023/06/14 02:57:48;;;;;;;17.42;13.63;;;16.60;99.90;;;;;;5051764;28;20037;-72
2023/06/14 03:00:14;;;;;;;16.33;13.95;;;16.60;99.90;;;;;;5051100;28;20033;-71
2023/06/14 03:02:39;;;;;;;15.40;13.82;;;16.60;99.90;;;;;;5050331;28;20021;-71
2023/06/14 03:05:07;;;;;;;14.77;13.27;;;16.60;99.90;;;;;;5049854;28;20530;-71
2023/06/14 03:07:32;;;;;;;17.67;13.57;;;16.50;99.90;;;;;;5050968;28;20024;-71
2023/06/14 03:09:58;;;;;;;14.95;13.35;;;16.50;99.90;;;;;;5051285;28;20447;-71
2023/06/14 03:12:24;;;;;;;13.95;12.50;;;16.60;99.90;;;;;;5050762;28;20029;-70
2023/06/14 03:14:51;;;;;;;16.13;14.30;;;16.60;99.90;;;;;;5050817;28;20144;-71
2023/06/14 03:17:17;;;;;;;16.83;13.85;;;16.60;99.90;;;;;;5050389;28;20033;-71
2023/06/14 03:19:43;;;;;;;15.48;13.55;;;16.70;99.90;;;;;;5051084;28;20028;-70
2023/06/14 03:22:11;;;;;;;15.50;13.57;;;16.70;99.90;;;;;;5049278;28;20090;-74
2023/06/14 03:24:37;;;;;;;14.57;13.07;;;16.70;99.90;;;;;;5050514;28;20109;-71
2023/06/14 03:27:03;;;;;;;14.25;12.88;;;16.70;99.90;;;;;;5050726;28;20052;-71
2023/06/14 03:29:29;;;;;;;16.80;13.43;;;16.80;99.90;;;;;;5049957;28;20044;-70
2023/06/14 03:32:02;;;;;;;15.60;13.98;;;16.80;99.90;;;;;;5049087;28;20037;-71
2023/06/14 03:34:28;;;;;;;16.05;13.00;;;16.90;99.90;;;;;;5049931;28;20415;-71
2023/06/14 03:36:54;;;;;;;14.05;12.75;;;17.00;99.90;;;;;;5050575;28;20191;-71
2023/06/14 03:39:20;;;;;;;14.55;12.90;;;17.00;99.90;;;;;;5050081;28;20021;-71
2023/06/14 03:41:46;;;;;;;13.05;11.00;;;17.00;99.90;;;;;;5050483;28;20116;-71
2023/06/14 03:44:16;;;;;;;11.95;10.30;;;17.10;99.90;;;;;;5050378;28;20031;-74
2023/06/14 03:46:42;;;;;;;14.23;11.13;;;17.30;99.90;;;;;;5050642;28;20104;-71
2023/06/14 03:49:08;;;;;;;11.80;9.43;;;17.40;99.90;;;;;;5050491;28;20053;-71
2023/06/14 03:51:35;;;;;;;12.80;10.23;;;17.40;99.90;;;;;;5048161;28;20079;-71
2023/06/14 03:54:01;;;;;;;11.10;9.85;;;17.60;99.90;;;;;;5050054;28;20095;-71
2023/06/14 03:56:27;;;;;;;10.45;9.23;;;17.70;99.90;;;;;;5049536;28;20029;-71
2023/06/14 03:58:52;;;;;;;13.70;9.70;;;17.80;99.90;;;;;;5049936;28;20104;-73
2023/06/14 04:01:18;;;;;;;11.98;9.07;;;17.90;99.90;;;;;;5049584;28;20086;-71
2023/06/14 04:03:44;;;;;;;9.35;8.38;;;18.00;99.90;;;;;;5050380;28;20056;-72
2023/06/14 04:06:10;;;;;;;11.23;8.25;;;18.00;99.90;;;;;;5050047;28;20025;-70
2023/06/14 04:08:35;;;;;;;9.70;8.30;;;18.10;99.90;;;;;;5049154;28;20021;-71
2023/06/14 04:11:01;;;;;;;11.07;8.40;;;18.10;99.90;;;;;;5049933;28;20029;-71
2023/06/14 04:13:27;;;;;;;10.27;7.63;;;18.20;99.90;;;;;;5049503;28;20075;-71
2023/06/14 04:15:53;;;;;;;10.52;7.50;;;18.20;99.90;;;;;;5049948;28;20029;-71
2023/06/14 04:18:20;;;;;;;10.85;8.20;;;18.30;99.90;;;;;;5049458;28;20025;-72
2023/06/14 04:20:46;;;;;;;10.63;8.63;;;18.30;99.90;;;;;;5049763;28;20039;-71
2023/06/14 04:23:17;;;;;;;9.95;8.18;;;18.40;99.90;;;;;;5049227;28;20033;-71
2023/06/14 04:25:45;;;;;;;8.77;7.70;;;18.40;99.90;;;;;;5049606;28;20025;-71
2023/06/14 04:28:18;;;;;;;10.43;8.00;;;18.50;99.90;;;;;;5048757;28;20057;-71
2023/06/14 04:30:44;;;;;;;13.75;7.95;;;18.50;99.90;;;;;;5049709;28;20041;-71
2023/06/14 04:33:11;;;;;;;10.75;7.65;;;18.50;99.90;;;;;;5049728;28;20075;-71
2023/06/14 04:35:37;;;;;;;9.05;7.93;;;18.60;99.90;;;;;;5049324;28;20118;-71
2023/06/14 04:38:09;;;;;;;10.25;7.55;;;18.50;99.90;;;;;;5049794;28;20128;-71
2023/06/14 04:40:36;;;;;;;8.63;6.95;;;18.50;99.90;;;;;;5048942;28;20700;-71
2023/06/14 04:43:06;;;;;;;10.35;7.22;;;18.50;99.90;;;;;;5049330;28;20023;-71
2023/06/14 04:45:32;;;;;;;9.95;7.00;;;18.60;99.90;;;;;;5048881;28;20029;-71
2023/06/14 04:48:01;;;;;;;9.63;6.85;;;18.60;99.90;;;;;;5049313;28;20048;-72
2023/06/14 04:50:26;;;;;;;7.57;6.40;;;18.60;99.90;;;;;;5048833;28;20037;-71
2023/06/14 04:52:53;;;;;;;8.73;7.40;;;18.60;99.90;;;;;;5049678;28;20074;-72
2023/06/14 04:55:19;;;;;;;8.65;6.78;;;18.60;99.90;;;;;;5048561;28;20112;-71
2023/06/14 04:57:45;;;;;;;10.13;7.47;;;18.70;99.90;;;;;;5049225;28;20103;-71
2023/06/14 05:00:12;;;;;;;8.02;7.22;;;18.70;99.90;;;;;;5049488;28;20077;-71
2023/06/14 05:02:37;;;;;;;8.02;7.22;;;18.70;99.90;;;;;;5048832;28;20040;-71
2023/06/14 05:05:07;;;;;;;11.75;7.22;;;18.80;99.90;;;;;;5049367;28;20032;-71
2023/06/14 05:07:33;;;;;;;13.40;7.72;;;18.80;99.90;;;;;;5048886;28;20033;-71
2023/06/14 05:09:59;;;;;;;9.32;6.78;;;18.80;99.90;;;;;;5048945;28;20029;-70
2023/06/14 05:12:25;;;;;;;7.85;6.63;;;18.90;99.90;;;;;;5048433;28;20025;-71
2023/06/14 05:14:51;;;;;;;10.45;8.07;;;18.90;99.90;;;;;;5048897;28;20032;-71
2023/06/14 05:17:17;;;;;;;12.15;7.22;;;19.00;99.90;;;;;;5050465;28;20029;-75
2023/06/14 05:19:43;;;;;;;8.05;7.20;;;19.00;99.90;;;;;;5052680;28;20029;-71
2023/06/14 05:22:08;;;;;;;9.20;7.35;;;19.10;99.90;;;;;;5052457;28;20045;-71
2023/06/14 05:24:34;;;;;;;10.82;7.20;;;19.10;99.90;;;;;;5051689;28;20418;-71
2023/06/14 05:27:00;;;;;;;9.30;7.00;;;19.10;99.90;;;;;;5052822;28;20052;-71
2023/06/14 05:29:27;;;;;;;10.07;7.28;;;19.20;99.90;;;;;;5052390;28;20025;-71
2023/06/14 05:31:53;;;;;;;9.05;7.38;;;19.30;99.90;;;;;;5052285;28;20478;-71
2023/06/14 05:34:19;;;;;;;12.73;7.35;;;19.30;99.90;;;;;;5052318;28;20108;-75
2023/06/14 05:36:44;;;;;;;7.68;6.85;;;19.40;99.90;;;;;;5052775;28;20043;-71
2023/06/14 05:39:10;;;;;;;9.63;6.68;;;19.50;99.90;;;;;;5052558;28;20377;-71
2023/06/14 05:41:36;;;;;;;13.10;6.53;;;19.50;99.90;;;;;;5051907;28;20534;-71
2023/06/14 05:44:02;;;;;;;9.02;5.78;;;19.60;99.90;;;;;;5051108;28;20118;-70
2023/06/14 05:46:28;;;;;;;9.02;6.50;;;19.70;99.90;;;;;;5051756;28;20032;-71
2023/06/14 05:48:54;;;;;;;8.00;6.50;;;19.70;99.90;;;;;;5052353;28;20061;-71
2023/06/14 05:51:20;;;;;;;8.40;6.47;;;19.80;99.90;;;;;;5051581;28;20044;-75
2023/06/14 05:53:46;;;;;;;10.60;6.43;;;19.80;99.90;;;;;;5052820;28;20028;-71
2023/06/14 05:56:13;;;;;;;10.35;6.40;;;19.90;99.90;;;;;;5051991;28;20024;-71
2023/06/14 05:58:39;;;;;;;11.27;6.13;;;19.90;99.90;;;;;;5051665;28;20114;-71
2023/06/14 06:01:05;;;;;;;10.05;6.05;;;19.90;99.90;;;;;;5052096;28;20126;-71
2023/06/14 06:03:32;;;;;;;6.78;5.40;;;19.90;99.90;;;;;;5051232;28;20056;-71
2023/06/14 06:05:58;;;;;;;10.60;5.53;;;20.00;99.90;;;;;;5051651;28;20028;-71
2023/06/14 06:08:24;;;;;;;9.30;5.90;;;20.10;99.90;;;;;;5051390;28;20174;-71
2023/06/14 06:10:50;;;;;;;10.27;5.72;;;20.20;99.90;;;;;;5051952;28;20187;-71
2023/06/14 06:13:16;;;;;;;6.95;5.47;;;20.20;99.90;;;;;;5052058;28;20099;-71
2023/06/14 06:15:41;;;;;;;6.97;5.15;;;20.30;99.90;;;;;;5050999;28;20025;-71
2023/06/14 06:18:07;;;;;;;7.45;5.28;;;20.30;99.90;;;;;;5051797;28;20079;-71
2023/06/14 06:20:33;;;;;;;7.80;4.95;;;20.50;99.90;;;;;;5051365;28;20432;-71
2023/06/14 06:22:59;;;;;;;6.88;4.93;;;20.50;99.90;;;;;;5051570;28;20027;-72
2023/06/14 06:25:28;;;;;;;8.45;5.13;;;20.60;99.90;;;;;;5051592;28;20032;-72
2023/06/14 06:27:56;;;;;;;10.20;5.80;;;20.70;99.90;;;;;;5051645;28;20498;-70
2023/06/14 06:30:22;;;;;;;8.38;5.28;;;20.80;99.90;;;;;;5049236;28;20094;-75
2023/06/14 06:32:48;;;;;;;10.02;6.20;;;20.80;99.90;;;;;;5051471;28;20025;-71
2023/06/14 06:35:14;;;;;;;10.27;6.07;;;20.80;99.90;;;;;;5051395;28;20025;-71
2023/06/14 06:37:43;;;;;;;6.10;5.38;;;20.80;99.90;;;;;;5050682;28;20025;-71
2023/06/14 06:40:10;;;;;;;9.50;5.75;;;20.80;99.90;;;;;;5050074;28;20033;-71
2023/06/14 06:42:36;;;;;;;15.90;6.43;;;20.90;99.90;;;;;;5051032;28;20021;-71
2023/06/14 06:45:02;;;;;;;8.10;5.50;;;20.90;99.90;;;;;;5051525;28;20466;-71
2023/06/14 06:47:27;;;;;;;7.72;5.35;;;21.00;99.90;;;;;;5051032;28;20032;-71
2023/06/14 06:49:53;;;;;;;7.20;5.68;;;21.10;99.90;;;;;;5050979;28;20025;-72
2023/06/14 06:52:19;;;;;;;10.95;5.78;;;21.00;99.90;;;;;;5051112;28;20029;-71
2023/06/14 06:54:45;;;;;;;11.82;5.32;;;21.10;99.90;;;;;;5050705;28;20076;-71
2023/06/14 06:57:10;;;;;;;8.48;4.63;;;21.10;99.90;;;;;;5049096;28;20052;-71
2023/06/14 06:59:37;;;;;;;7.93;4.90;;;21.00;99.90;;;;;;5050401;28;20056;-71
2023/06/14 07:02:03;;;;;;;7.75;5.07;;;21.10;99.90;;;;;;5050625;28;20131;-71
2023/06/14 07:04:29;;;;;;;7.80;5.70;;;21.10;99.90;;;;;;5050425;28;20351;-71
2023/06/14 07:06:55;;;;;;;9.60;5.65;;;21.20;99.90;;;;;;5049516;28;20082;-71
2023/06/14 07:09:21;;;;;;;7.55;4.80;;;21.30;99.90;;;;;;5050733;28;20107;-71
2023/06/14 07:11:47;;;;;;;8.70;5.40;;;21.30;99.90;;;;;;5048760;28;20506;-71
2023/06/14 07:14:13;;;;;;;14.85;5.90;;;21.30;99.90;;;;;;5048892;28;20025;-71
2023/06/14 07:16:39;;;;;;;15.68;5.20;;;21.40;99.90;;;;;;5050178;28;20424;-71
2023/06/14 07:19:05;;;;;;;10.32;4.78;;;21.50;99.90;;;;;;5050877;28;20032;-71
2023/06/14 07:21:30;;;;;;;7.60;5.00;;;21.60;99.90;;;;;;5050145;28;20059;-71
2023/06/14 07:23:56;;;;;;;8.23;4.68;;;21.60;99.90;;;;;;5050569;28;20120;-71
2023/06/14 07:26:22;;;;;;;7.47;5.15;;;21.60;99.90;;;;;;5050143;28;20029;-71
2023/06/14 07:28:49;;;;;;;7.82;4.78;;;21.70;99.90;;;;;;5049840;28;20036;-70
2023/06/14 07:31:16;;;;;;;9.43;4.95;;;21.70;99.90;;;;;;5050261;28;20493;-70
2023/06/14 07:33:42;;;;;;;5.32;4.72;;;21.80;99.90;;;;;;5048645;28;20033;-70
2023/06/14 07:36:08;;;;;;;7.32;4.75;;;21.90;99.90;;;;;;5050353;28;20111;-70
2023/06/14 07:38:34;;;;;;;8.93;5.32;;;22.00;99.90;;;;;;5049917;28;20492;-71
2023/06/14 07:41:00;;;;;;;6.80;4.47;;;22.10;99.90;;;;;;5050093;28;20121;-71
2023/06/14 07:43:26;;;;;;;12.15;5.05;;;22.10;99.90;;;;;;5050256;28;20451;-74
2023/06/14 07:45:52;;;;;;;8.80;4.78;;;22.30;99.90;;;;;;5050272;28;20103;-71
2023/06/14 07:48:18;;;;;;;7.72;4.68;;;22.20;99.90;;;;;;5050462;28;20121;-71
2023/06/14 07:50:44;;;;;;;7.45;5.30;;;22.30;99.90;;;;;;5049687;28;20041;-72
2023/06/14 07:53:10;;;;;;;6.97;4.60;;;22.30;99.90;;;;;;5050228;28;20443;-72
2023/06/14 07:55:36;;;;;;;8.50;4.85;;;22.30;99.90;;;;;;5049905;28;20029;-71
2023/06/14 07:58:06;;;;;;;6.13;4.40;;;22.40;99.90;;;;;;5050214;28;20079;-71
2023/06/14 08:00:32;;;;;;;10.07;4.90;;;22.40;99.90;;;;;;5049737;28;20477;-71
2023/06/14 08:02:59;;;;;;;7.88;4.60;;;22.40;99.90;;;;;;5049861;28;20027;-71
2023/06/14 08:05:28;;;;;;;10.10;5.28;;;22.40;99.90;;;;;;5050064;28;20036;-71
2023/06/14 08:07:55;;;;;;;5.85;4.63;;;22.50;99.90;;;;;;5050117;28;20021;-71
2023/06/14 08:10:22;;;;;;;5.65;4.40;;;22.60;99.90;;;;;;5050100;28;20029;-71
2023/06/14 08:12:50;;;;;;;5.82;4.40;;;22.60;99.90;;;;;;5049031;28;20029;-71
2023/06/14 08:15:17;;;;;;;6.60;4.47;;;22.60;99.90;;;;;;5049950;28;20039;-71
2023/06/14 08:17:43;;;;;;;8.30;4.93;;;22.50;99.90;;;;;;5049069;28;20432;-72
2023/06/14 08:20:10;;;;;;;5.93;4.57;;;22.50;99.90;;;;;;5048358;28;20033;-72
2023/06/14 08:22:37;;;;;;;12.25;5.45;;;22.50;99.90;;;;;;5049231;28;20047;-72
2023/06/14 08:25:04;;;;;;;8.95;5.20;;;22.60;99.90;;;;;;5049665;28;20035;-72
2023/06/14 08:27:30;;;;;;;10.02;5.13;;;22.50;99.90;;;;;;5049367;28;20144;-75
2023/06/14 08:29:56;;;;;;;12.82;5.15;;;22.60;99.90;;;;;;5049818;28;20025;-72
2023/06/14 08:32:22;;;;;;;13.23;4.72;;;22.60;99.90;;;;;;5049947;28;20048;-72
2023/06/14 08:34:48;;;;;;;8.10;4.97;;;22.70;99.90;;;;;;5048976;28;20033;-73
2023/06/14 08:37:13;;;;;;;7.63;4.78;;;22.80;99.90;;;;;;5049849;28;20418;-72
2023/06/14 08:39:39;;;;;;;5.97;4.20;;;22.90;99.90;;;;;;5049395;28;20029;-71
2023/06/14 08:42:07;;;;;;;7.32;4.78;;;22.80;99.90;;;;;;5049920;28;20168;-72
2023/06/14 08:44:33;;;;;;;14.15;4.90;;;22.80;99.90;;;;;;5049336;28;20071;-73
2023/06/14 08:47:00;;;;;;;10.60;4.70;;;22.60;99.90;;;;;;5049610;28;20033;-71
2023/06/14 08:49:26;;;;;;;10.55;4.93;;;22.60;99.90;;;;;;5049549;28;20036;-71
2023/06/14 08:52:00;;;;;;;44.00;6.90;;;22.50;99.90;;;;;;5048519;28;20766;-72
2023/06/14 08:54:30;;;;;;;9.82;4.78;;;22.50;99.90;;;;;;5053891;28;20408;-72
2023/06/14 08:56:57;;;;;;;5.78;4.15;;;21.30;99.90;;;;;;5053452;28;20029;-72
2023/06/14 08:59:38;;;;;;;5.80;4.32;;;20.60;99.90;;;;;;5053609;28;20041;-71
2023/06/14 09:02:06;;;;;;;6.22;3.75;;;20.30;99.90;;;;;;5053365;28;20044;-72
2023/06/14 09:04:33;;;;;;;6.40;4.45;;;20.30;99.90;;;;;;5051796;28;20029;-72
2023/06/14 09:06:59;;;;;;;6.57;3.83;;;20.50;99.90;;;;;;5052718;28;20031;-71
2023/06/14 09:09:25;;;;;;;4.47;3.80;;;20.70;99.90;;;;;;5052842;28;20032;-72
2023/06/14 09:11:51;;;;;;;8.00;3.92;;;20.90;99.90;;;;;;5052088;28;20037;-71
2023/06/14 09:14:19;;;;;;;4.75;3.55;;;21.10;99.90;;;;;;5052057;28;20430;-73
2023/06/14 09:16:45;;;;;;;7.55;3.90;;;21.30;99.90;;;;;;5051054;28;20025;-72
2023/06/14 09:19:31;;;;;;;7.15;3.70;;;21.50;99.90;;;;;;5051917;28;20377;-72
2023/06/14 09:21:57;;;;;;;6.30;3.10;;;21.70;99.90;;;;;;5051662;28;20133;-71
2023/06/14 09:24:25;;;;;;;6.63;3.15;;;21.70;99.90;;;;;;5052434;28;20422;-72
2023/06/14 09:26:51;;;;;;;6.70;3.13;;;21.80;99.90;;;;;;5052030;28;20044;-73
2023/06/14 09:29:18;;;;;;;4.75;3.10;;;21.70;99.90;;;;;;5052655;28;20059;-72
2023/06/14 09:31:46;;;;;;;4.22;2.90;;;21.80;99.90;;;;;;5052078;28;20086;-70
2023/06/14 09:34:13;;;;;;;5.05;3.10;;;21.60;99.90;;;;;;5052270;28;20116;-72
2023/06/14 09:36:40;;;;;;;5.45;3.30;;;21.60;99.90;;;;;;5052721;28;20036;-72
2023/06/14 09:39:08;;;;;;;4.70;3.10;;;21.70;99.90;;;;;;5052699;28;20160;-72
2023/06/14 09:41:41;;;;;;;5.72;3.22;;;21.90;99.90;;;;;;5052499;28;20105;-74
2023/06/14 09:44:11;;;;;;;6.28;2.95;;;22.10;99.90;;;;;;5052687;28;20021;-71
2023/06/14 09:46:38;;;;;;;6.50;2.83;;;22.20;99.90;;;;;;5051721;28;20080;-72
2023/06/14 09:49:05;;;;;;;6.57;3.75;;;21.90;99.90;;;;;;5051941;28;20017;-72
2023/06/14 09:51:31;;;;;;;6.18;2.90;;;21.80;99.90;;;;;;5052118;28;20094;-71
2023/06/14 09:54:01;;;;;;;4.28;3.33;;;21.90;99.90;;;;;;5050767;28;20108;-71
2023/06/14 09:56:34;;;;;;;7.95;3.45;;;22.00;99.90;;;;;;5051608;28;20249;-71
2023/06/14 09:59:04;;;;;;;8.95;3.70;;;22.00;99.90;;;;;;5049751;28;20090;-72
2023/06/14 10:01:31;;;;;;;5.90;3.42;;;22.10;99.90;;;;;;5051749;28;20060;-72
2023/06/14 10:04:03;;;;;;;6.80;3.20;;;22.30;99.90;;;;;;5050798;28;20067;-72
2023/06/14 10:06:30;;;;;;;4.30;3.25;;;22.20;99.90;;;;;;5050068;28;20082;-71
2023/06/14 10:09:00;;;;;;;5.45;3.60;;;22.20;99.90;;;;;;5050758;28;20032;-71
2023/06/14 10:11:27;;;;;;;5.85;2.90;;;22.10;99.90;;;;;;5051257;28;20036;-71
2023/06/14 10:13:54;;;;;;;9.93;3.65;;;21.80;99.90;;;;;;5049371;28;20064;-71
2023/06/14 10:17:08;;;;;;;10.73;3.30;;;21.80;99.90;;;;;;5051315;28;20025;-71
2023/06/14 10:19:44;;;;;;;6.30;3.13;;;21.90;99.90;;;;;;5028439;28;20116;-70
2023/06/14 10:22:16;;;;;;;8.73;3.28;;;21.70;99.90;;;;;;5029225;28;20390;-71
2023/06/14 10:24:44;;;;;;;8.13;3.78;;;21.70;99.90;;;;;;5028926;28;20426;-71
2023/06/14 10:27:12;;;;;;;9.10;3.47;;;21.70;99.90;;;;;;5029461;28;20129;-71
2023/06/14 10:29:53;;;;;;;5.07;3.15;;;21.70;99.90;;;;;;5029212;28;20478;-74
2023/06/14 10:32:20;;;;;;;5.72;3.58;;;21.80;99.90;;;;;;5029561;28;20133;-71
2023/06/14 10:34:57;;;;;;;5.32;3.33;;;21.70;99.90;;;;;;5028398;28;20033;-71
2023/06/14 10:37:24;;;;;;;11.93;4.10;;;21.90;99.90;;;;;;5029252;28;20422;-71
2023/06/14 10:39:50;;;;;;;5.70;3.22;;;21.90;99.90;;;;;;5028150;28;20029;-72
2023/06/14 10:42:16;;;;;;;7.97;3.60;;;22.00;99.90;;;;;;5028986;28;20030;-72
2023/06/14 10:44:43;;;;;;;5.75;3.40;;;21.90;99.90;;;;;;5028217;28;20064;-72
2023/06/14 10:47:34;;;;;;;9.25;3.50;;;21.90;99.90;;;;;;5028660;28;20360;-71
2023/06/14 10:50:14;;;;;;;8.43;3.95;;;21.80;99.90;;;;;;5031322;28;20041;-72
2023/06/14 10:52:43;;;;;;;9.07;4.13;;;21.80;99.90;;;;;;5050782;28;20435;-72
2023/06/14 10:55:18;;;;;;;11.68;4.22;;;21.70;99.90;;;;;;5050696;28;20040;-72
2023/06/14 10:57:46;;;;;;;9.57;4.38;;;21.70;99.90;;;;;;5050237;28;20024;-72
2023/06/14 11:00:15;;;;;;;10.57;4.60;;;21.80;99.90;;;;;;5050998;28;20045;-72
2023/06/14 11:03:04;;;;;;;6.68;4.13;;;21.70;99.90;;;;;;5050258;28;20173;-74
2023/06/14 11:05:35;;;;;;;6.05;3.20;;;21.40;99.90;;;;;;5049008;28;20032;-72
2023/06/14 11:08:12;;;;;;;8.55;3.70;;;21.20;99.90;;;;;;5050292;28;20350;-72
2023/06/14 11:10:43;;;;;;;11.43;3.72;;;21.20;99.90;;;;;;5050637;28;20037;-72
2023/06/14 11:13:09;;;;;;;8.30;3.88;;;21.20;99.90;;;;;;5050815;28;20112;-72
2023/06/14 11:15:36;;;;;;;5.68;3.70;;;21.20;99.90;;;;;;5049654;28;20547;-72
2023/06/14 11:18:04;;;;;;;10.93;3.97;;;21.20;99.90;;;;;;5050755;28;20035;-72
2023/06/14 11:20:35;;;;;;;10.35;4.38;;;21.00;99.90;;;;;;5050279;28;20056;-72
2023/06/14 11:23:02;;;;;;;8.13;4.00;;;21.00;99.90;;;;;;5050766;28;20120;-72
2023/06/14 11:25:28;;;;;;;7.97;4.03;;;21.10;99.90;;;;;;5050416;28;20037;-71
2023/06/14 11:27:54;;;;;;;10.27;4.43;;;21.20;99.90;;;;;;5050825;28;20122;-72
2023/06/14 11:30:20;;;;;;;10.60;4.43;;;20.90;99.90;;;;;;5050380;28;20119;-71
2023/06/14 11:32:47;;;;;;;10.18;4.15;;;21.00;99.90;;;;;;5049827;28;20471;-72
2023/06/14 11:35:13;;;;;;;9.25;5.20;;;21.00;99.90;;;;;;5049760;28;20116;-72
2023/06/14 11:37:41;;;;;;;10.55;4.82;;;20.90;99.90;;;;;;5049801;28;20057;-72
2023/06/14 11:40:09;;;;;;;9.27;4.43;;;21.00;99.90;;;;;;5049401;28;20073;-71
2023/06/14 11:42:36;;;;;;;13.57;4.85;;;21.00;99.90;;;;;;5049760;28;20062;-72
2023/06/14 11:45:03;;;;;;;12.32;5.05;;;21.10;99.90;;;;;;5048840;28;20021;-71
2023/06/14 11:47:46;;;;;;;9.75;5.18;;;21.40;99.90;;;;;;5047850;28;20048;-71
2023/06/14 11:50:12;;;;;;;7.40;4.25;;;21.40;99.90;;;;;;5049646;28;20063;-72
2023/06/14 11:52:38;;;;;;;9.68;4.60;;;21.20;99.90;;;;;;5049774;28;20056;-72
2023/06/14 11:55:05;;;;;;;8.02;4.70;;;21.20;99.90;;;;;;5048726;28;20471;-72
2023/06/14 11:57:35;;;;;;;8.15;4.80;;;21.20;99.90;;;;;;5049830;28;20059;-72
2023/06/14 12:00:06;;;;;;;11.02;4.80;;;21.30;99.90;;;;;;5049142;28;20021;-72
2023/06/14 12:02:32;;;;;;;7.43;4.78;;;21.30;99.90;;;;;;5049686;28;20450;-71
2023/06/14 12:05:05;;;;;;;9.70;5.07;;;21.20;99.90;;;;;;5048858;28;20057;-72
2023/06/14 12:07:33;;;;;;;9.63;5.22;;;21.10;99.90;;;;;;5049557;28;20025;-72
2023/06/14 12:09:59;;;;;;;8.00;4.63;;;21.00;99.90;;;;;;5049076;28;20493;-72
2023/06/14 12:12:25;;;;;;;7.88;4.47;;;20.90;99.90;;;;;;5049637;28;20442;-72
2023/06/14 12:14:52;;;;;;;8.02;4.65;;;21.00;99.90;;;;;;5047246;28;20070;-72
2023/06/14 12:17:18;;;;;;;7.78;5.03;;;20.90;99.90;;;;;;5049192;28;20059;-72
2023/06/14 12:19:45;;;;;;;7.40;4.82;;;21.00;99.90;;;;;;5049069;28;20025;-74
2023/06/14 12:22:13;;;;;;;9.70;4.32;;;21.00;99.90;;;;;;5049432;28;20033;-71
2023/06/14 12:24:42;;;;;;;9.88;4.50;;;20.90;99.90;;;;;;5049420;28;20109;-72
2023/06/14 12:27:08;;;;;;;11.07;4.00;;;21.00;99.90;;;;;;5050153;28;20140;-72
2023/06/14 12:29:34;;;;;;;11.77;4.18;;;21.20;99.90;;;;;;5053451;28;20029;-71
2023/06/14 12:32:00;;;;;;;9.27;4.43;;;21.20;99.90;;;;;;5052983;28;20037;-72
2023/06/14 12:34:30;;;;;;;5.55;4.07;;;21.10;99.90;;;;;;5053736;28;20031;-71
2023/06/14 12:36:57;;;;;;;9.30;4.75;;;21.10;99.90;;;;;;5052915;28;20064;-72
2023/06/14 12:39:23;;;;;;;7.80;4.03;;;21.00;99.90;;;;;;5053192;28;20463;-72